This is the latest recevied weather packets stored in our database for station/object HS9UAC-10. If no packets are shown the sender has not sent any weather packets the latest 1 day(s).
| Time | Temp. | Humidity | Pressure | Rain* | Wind** | Luminosity | Snow |
|---|---|---|---|---|---|---|---|
| 1836274379 | 34.44° C | 66% | 1010 hPa | - | 0 m/s | 0 W/m² | - |
| 1836274207 | 34.44° C | 63% | 1010 hPa | - | 0 m/s | 0 W/m² | - |
| 1778058746 | 45° C | 40% | 1004 hPa | - | 0 m/s | 0 W/m² | - |
| 1778057821 | 43.33° C | 42% | 1004 hPa | - | 0 m/s | 0 W/m² | - |
| 1778056897 | 43.89° C | 41% | 1004 hPa | - | 0 m/s | 0 W/m² | - |
| 1778055972 | 43.89° C | 42% | 1004 hPa | - | 0 m/s | 0 W/m² | - |
| 1778055047 | 43.33° C | 42% | 1004 hPa | - | 0 m/s | 0 W/m² | - |
| 1778054122 | 41.67° C | 47% | 1005 hPa | - | 0 m/s | 0 W/m² | - |
| 1778053198 | 40° C | 52% | 1005 hPa | - | 0 m/s | 0 W/m² | - |
| 1778052273 | 39.44° C | 54% | 1005 hPa | - | 0 m/s | 0 W/m² | - |
| 1778051348 | 38.89° C | 56% | 1005 hPa | - | 0 m/s | 0 W/m² | - |
| 1778050424 | 38.89° C | 56% | 1005 hPa | - | 0 m/s | 0 W/m² | - |
| 1778049499 | 39.44° C | 52% | 1006 hPa | - | 0 m/s | 0 W/m² | - |
| 1778048575 | 38.89° C | 53% | 1006 hPa | - | 0 m/s | 0 W/m² | - |
| 1778047650 | 40° C | 50% | 1006 hPa | - | 0 m/s | 0 W/m² | - |
| 1778046725 | 38.89° C | 51% | 1007 hPa | - | 0 m/s | 0 W/m² | - |
| 1778045801 | 38.89° C | 52% | 1007 hPa | - | 0 m/s | 0 W/m² | - |
| 1778044876 | 38.33° C | 56% | 1007 hPa | - | 0 m/s | 0 W/m² | - |
| 1778043952 | 38.89° C | 56% | 1007 hPa | - | 0 m/s | 0 W/m² | - |
| 1778043027 | 37.78° C | 64% | 1007 hPa | - | 0 m/s | 0 W/m² | - |
| 1778042102 | 38.89° C | 61% | 1008 hPa | - | 0 m/s | 0 W/m² | - |
| 1778041178 | 37.22° C | 63% | 1008 hPa | - | 0 m/s | 0 W/m² | - |
| 1778040253 | 37.78° C | 65% | 1008 hPa | - | 0 m/s | 0 W/m² | - |
| 1778039329 | 37.22° C | 68% | 1008 hPa | - | 0 m/s | 0 W/m² | - |
| 1778038404 | 37.22° C | 69% | 1008 hPa | - | 0 m/s | 0 W/m² | - |
* Rain since midnight (hover to see other rain measurements)
** Current wind speed in m/s (hover to see current wind gust speed)